Archival Weather

Chicago O'Hare International

Chicago, Illinois (KORD)

Report from: Monday, December 26, 2022 11:51 PM CST
Current time: Friday, June 21, 2024 2:15 AM CDT

Current weather – Weather history – Daily summaries
Weather forecast

Temperature-11.7°C (10.9°F)
Wind chill-16.2°C (2.9°F)
Dew point-15.0°C (5.0°F)
Winds 4 kts (2.1 m/s, 4.6 mph) West-Southwest (250°)
Visibility10 mi. (16.1 km)
Clouds Few clouds 5,500 ft. (1,676 m)
Few clouds 25,000 ft. (7,620 m)
Altimeter30.23 in.Hg (1024 mB)
Relative humidity76 %
Density altitude-3,721 ft. (-1,134 m)
Sea-level pressure102.5 kPa (1025 mB, 30.27 in.Hg)
Max temp last 6 hours-6.7°C (19.9°F)
Min temp last 6 hours-11.7°C (10.9°F)
Max temp last 24 hours-5.6°C (21.9°F)
Min temp last 24 hours-11.7°C (10.9°F)
Remarks System requires maintenance
Automated weather observing station with precipitation discriminator
Pressure rising, then falling
Flight conditions Visual Meteorological Conditions
Raw dataKORD 270551Z 25004KT 10SM FEW055 FEW250 M12/M15 A3023 RMK AO2 SLP250 T11171150 11067 21117 410561117 50001 $
An error has occurred. This application may no longer respond until reloaded. Reload 🗙